createdAt,value
2022-09-23T00:00:46.615Z,-60
2022-09-23T00:03:13.990Z,-60
2022-09-23T00:05:40.490Z,-60
2022-09-23T00:08:08.366Z,-60
2022-09-23T00:10:38.165Z,-60
2022-09-23T00:13:05.728Z,-60
2022-09-23T00:15:37.433Z,-60
2022-09-23T00:18:03.891Z,-60
2022-09-23T00:20:32.045Z,-60
2022-09-23T00:22:58.369Z,-60
2022-09-23T00:25:25.088Z,-60
2022-09-23T00:27:51.419Z,-60
2022-09-23T00:30:18.426Z,-60
2022-09-23T00:32:44.747Z,-60
2022-09-23T00:35:11.074Z,-60
2022-09-23T00:37:37.414Z,-60
2022-09-23T00:40:04.062Z,-60
2022-09-23T00:42:30.518Z,-60
2022-09-23T00:44:58.938Z,-60
2022-09-23T00:47:32.816Z,-60
2022-09-23T00:50:02.088Z,-57
2022-09-23T00:52:29.267Z,-57
2022-09-23T00:54:57.906Z,-57
2022-09-23T00:57:25.818Z,-57
2022-09-23T00:59:52.287Z,-57
2022-09-23T01:02:21.062Z,-57
2022-09-23T01:04:50.531Z,-57
2022-09-23T01:07:17.833Z,-57
2022-09-23T01:09:47.283Z,-57
2022-09-23T01:12:31.997Z,-58
2022-09-23T01:15:07.722Z,-57
2022-09-23T01:17:49.545Z,-57
2022-09-23T01:20:34.767Z,-57
2022-09-23T01:23:40.453Z,-57
2022-09-23T01:26:48.535Z,-57
2022-09-23T01:29:47.363Z,-57
2022-09-23T01:32:19.921Z,-57
2022-09-23T01:34:55.377Z,-57
2022-09-23T01:37:29.386Z,-57
2022-09-23T01:40:11.369Z,-57
2022-09-23T01:42:43.970Z,-57
2022-09-23T01:45:14.454Z,-58
2022-09-23T01:47:55.818Z,-57
2022-09-23T01:51:06.214Z,-57
2022-09-23T01:53:45.867Z,-57
2022-09-23T01:56:27.319Z,-57
2022-09-23T01:59:12.606Z,-57
2022-09-23T02:01:55.461Z,-57
2022-09-23T02:04:31.028Z,-57
2022-09-23T02:07:07.847Z,-57
2022-09-23T02:09:41.429Z,-57
2022-09-23T02:12:13.633Z,-57
2022-09-23T02:14:50.505Z,-57
2022-09-23T02:17:46.755Z,-59
2022-09-23T02:20:20.484Z,-57
2022-09-23T02:23:12.114Z,-57
2022-09-23T02:26:19.922Z,-59
2022-09-23T02:29:05.022Z,-57
2022-09-23T02:31:55.950Z,-57
2022-09-23T02:34:37.642Z,-57
2022-09-23T02:37:13.186Z,-57
2022-09-23T02:39:58.039Z,-57
2022-09-23T02:43:02.668Z,-57
2022-09-23T02:45:29.357Z,-57
2022-09-23T02:48:04.395Z,-57
2022-09-23T02:50:32.919Z,-57
2022-09-23T02:53:00.537Z,-57
2022-09-23T02:55:32.741Z,-57
2022-09-23T02:58:01.689Z,-57
2022-09-23T03:00:54.162Z,-57
2022-09-23T03:03:36.368Z,-57
2022-09-23T03:06:15.109Z,-58
2022-09-23T03:08:53.731Z,-57
2022-09-23T03:11:21.600Z,-57
2022-09-23T03:14:17.519Z,-58
2022-09-23T03:16:44.010Z,-57
2022-09-23T03:19:29.178Z,-57
2022-09-23T03:22:05.753Z,-57
2022-09-23T03:24:34.906Z,-57
2022-09-23T03:27:05.718Z,-57
2022-09-23T03:29:34.420Z,-57
2022-09-23T03:32:01.102Z,-57
2022-09-23T03:34:31.759Z,-57
2022-09-23T03:37:07.778Z,-57
2022-09-23T03:39:40.113Z,-58
2022-09-23T03:42:18.486Z,-58
2022-09-23T03:44:46.816Z,-57
2022-09-23T03:47:15.158Z,-57
2022-09-23T03:49:48.352Z,-57
2022-09-23T03:52:16.121Z,-57
2022-09-23T03:54:42.597Z,-57
2022-09-23T03:57:11.514Z,-57
2022-09-23T03:59:37.997Z,-57
2022-09-23T04:02:05.389Z,-57
2022-09-23T04:04:34.066Z,-57
2022-09-23T04:07:00.693Z,-57
2022-09-23T04:09:27.565Z,-57
2022-09-23T04:11:54.144Z,-58
2022-09-23T04:14:21.488Z,-58
2022-09-23T04:16:49.193Z,-57
2022-09-23T04:19:16.318Z,-57
2022-09-23T04:21:44.406Z,-57
2022-09-23T04:24:11.458Z,-57
2022-09-23T04:26:38.560Z,-57
2022-09-23T04:29:06.488Z,-57
2022-09-23T04:31:34.310Z,-57
2022-09-23T04:34:00.902Z,-57
2022-09-23T04:36:29.075Z,-58
2022-09-23T04:38:56.334Z,-57
2022-09-23T04:41:22.726Z,-58
2022-09-23T04:43:49.052Z,-57
2022-09-23T04:46:16.679Z,-57
2022-09-23T04:48:43.418Z,-58
2022-09-23T04:51:12.981Z,-58
2022-09-23T04:53:42.150Z,-57
2022-09-23T04:56:11.742Z,-57
2022-09-23T04:58:39.457Z,-57
2022-09-23T05:01:26.636Z,-57
2022-09-23T05:03:55.118Z,-57
2022-09-23T05:06:21.817Z,-57
2022-09-23T05:08:51.878Z,-57
2022-09-23T05:11:18.813Z,-57
2022-09-23T05:13:47.695Z,-57
2022-09-23T05:16:15.025Z,-57
2022-09-23T05:18:43.826Z,-57
2022-09-23T05:21:11.914Z,-57
2022-09-23T05:23:40.503Z,-57
2022-09-23T05:26:11.059Z,-57
2022-09-23T05:28:39.227Z,-57
2022-09-23T05:31:19.408Z,-57
2022-09-23T05:33:51.998Z,-58
2022-09-23T05:36:20.394Z,-57
2022-09-23T05:38:48.993Z,-57
2022-09-23T05:41:16.238Z,-58
2022-09-23T05:43:42.707Z,-58
2022-09-23T05:46:14.957Z,-57
2022-09-23T05:48:42.455Z,-57
2022-09-23T05:51:12.929Z,-57
2022-09-23T05:53:41.590Z,-58
2022-09-23T05:56:08.184Z,-58
2022-09-23T05:58:34.761Z,-57
2022-09-23T06:01:01.158Z,-57
2022-09-23T06:03:27.609Z,-57
2022-09-23T06:05:55.482Z,-58
2022-09-23T06:08:22.835Z,-57
2022-09-23T06:10:54.371Z,-57
2022-09-23T06:13:21.496Z,-57
2022-09-23T06:15:47.884Z,-57
2022-09-23T06:18:14.218Z,-57
2022-09-23T06:20:40.658Z,-57
2022-09-23T06:23:11.365Z,-57
2022-09-23T06:25:38.630Z,-57
2022-09-23T06:28:07.401Z,-57
2022-09-23T06:30:34.721Z,-57
2022-09-23T06:33:02.243Z,-57
2022-09-23T06:35:28.897Z,-57
2022-09-23T06:37:55.265Z,-57
2022-09-23T06:40:22.521Z,-57
2022-09-23T06:42:56.757Z,-57
2022-09-23T06:45:23.421Z,-57
2022-09-23T06:47:56.271Z,-57
2022-09-23T06:50:24.008Z,-57
2022-09-23T06:52:58.298Z,-58
2022-09-23T06:55:27.119Z,-57
2022-09-23T06:57:54.678Z,-57
2022-09-23T07:00:21.235Z,-57
2022-09-23T07:02:47.650Z,-57
2022-09-23T07:05:16.383Z,-57
2022-09-23T07:07:46.206Z,-57
2022-09-23T07:10:12.613Z,-57
2022-09-23T07:12:39.330Z,-57
2022-09-23T07:15:06.653Z,-57
2022-09-23T07:17:33.237Z,-57
2022-09-23T07:19:59.576Z,-58
2022-09-23T07:22:26.527Z,-57
2022-09-23T07:24:56.635Z,-57
2022-09-23T07:27:25.315Z,-57
2022-09-23T07:29:52.421Z,-57
2022-09-23T07:32:19.902Z,-57
2022-09-23T07:34:47.102Z,-57
2022-09-23T07:37:17.881Z,-58
2022-09-23T07:39:45.203Z,-57
2022-09-23T07:42:14.160Z,-57
2022-09-23T07:44:43.953Z,-58
2022-09-23T07:47:10.269Z,-58
2022-09-23T07:49:36.930Z,-57
2022-09-23T07:52:03.484Z,-58
2022-09-23T07:54:29.982Z,-57
2022-09-23T07:56:56.557Z,-57
2022-09-23T07:59:22.972Z,-57
2022-09-23T08:01:52.567Z,-57
2022-09-23T08:04:22.667Z,-60
2022-09-23T08:06:54.711Z,-57
2022-09-23T08:09:24.038Z,-57
2022-09-23T08:11:52.067Z,-57
2022-09-23T08:14:19.111Z,-60
2022-09-23T08:16:47.550Z,-60
2022-09-23T08:19:14.940Z,-60
2022-09-23T08:21:41.859Z,-60
2022-09-23T08:24:11.387Z,-60
2022-09-23T08:26:37.853Z,-60
2022-09-23T08:29:05.113Z,-60
2022-09-23T08:31:31.826Z,-60
2022-09-23T08:33:58.547Z,-60
2022-09-23T08:36:26.113Z,-60
2022-09-23T08:38:52.503Z,-60
2022-09-23T08:41:40.616Z,-60
2022-09-23T08:44:31.243Z,-60
2022-09-23T08:47:11.960Z,-60
2022-09-23T08:50:06.527Z,-60
2022-09-23T08:52:39.844Z,-60
2022-09-23T08:55:12.459Z,-60
2022-09-23T08:57:41.562Z,-60
2022-09-23T09:00:16.314Z,-60
2022-09-23T09:02:42.917Z,-60
2022-09-23T09:05:12.878Z,-60
2022-09-23T09:07:42.009Z,-60
2022-09-23T09:10:33.422Z,-60
2022-09-23T09:13:07.310Z,-60
2022-09-23T09:15:43.475Z,-60
2022-09-23T09:18:19.994Z,-60
2022-09-23T09:20:57.223Z,-61
2022-09-23T09:23:34.664Z,-60
2022-09-23T09:26:02.742Z,-60
2022-09-23T09:28:42.015Z,-60
2022-09-23T09:31:53.549Z,-60
2022-09-23T09:34:37.986Z,-61
2022-09-23T09:37:12.562Z,-60
2022-09-23T09:39:38.924Z,-60
2022-09-23T09:42:07.026Z,-60
2022-09-23T09:44:59.031Z,-60
2022-09-23T09:47:49.940Z,-60
2022-09-23T09:50:21.583Z,-61
2022-09-23T09:52:48.757Z,-61
2022-09-23T09:55:15.093Z,-61
2022-09-23T09:58:01.535Z,-61
2022-09-23T10:00:27.866Z,-60
2022-09-23T10:02:59.224Z,-61
2022-09-23T10:05:31.854Z,-61
2022-09-23T10:08:23.002Z,-61
2022-09-23T10:10:58.407Z,-61
2022-09-23T10:13:29.414Z,-61
2022-09-23T10:16:00.623Z,-60
2022-09-23T10:18:30.698Z,-61
2022-09-23T10:21:17.552Z,-61
2022-09-23T10:23:46.646Z,-61
2022-09-23T10:26:17.340Z,-61
2022-09-23T10:28:55.848Z,-61
2022-09-23T10:31:27.926Z,-61
2022-09-23T10:34:00.396Z,-61
2022-09-23T10:36:29.246Z,-61
2022-09-23T10:39:16.977Z,-65
2022-09-23T10:42:21.944Z,-61
2022-09-23T10:45:58.384Z,-61
2022-09-23T10:48:37.175Z,-61
2022-09-23T10:51:32.033Z,-61
2022-09-23T10:54:18.546Z,-61
2022-09-23T10:56:50.631Z,-62
2022-09-23T10:59:55.119Z,-62
2022-09-23T11:02:46.149Z,-62
2022-09-23T11:05:24.498Z,-62
2022-09-23T11:08:13.152Z,-62
2022-09-23T11:10:52.010Z,-62
2022-09-23T11:13:35.086Z,-62
2022-09-23T11:16:01.394Z,-62
2022-09-23T11:18:55.912Z,-62
2022-09-23T11:21:34.325Z,-62
2022-09-23T11:24:35.897Z,-62
2022-09-23T11:27:05.117Z,-62
2022-09-23T11:29:49.903Z,-62
2022-09-23T11:32:34.208Z,-62
2022-09-23T11:35:16.357Z,-62
2022-09-23T11:37:55.790Z,-62
2022-09-23T11:40:32.067Z,-62
2022-09-23T11:43:07.463Z,-62
2022-09-23T11:45:41.523Z,-61
2022-09-23T11:48:22.807Z,-62
2022-09-23T11:51:00.841Z,-62
2022-09-23T11:53:49.083Z,-62
2022-09-23T11:56:34.601Z,-62
2022-09-23T11:59:31.799Z,-62
2022-09-23T12:02:30.614Z,-63
2022-09-23T12:05:02.762Z,-62
2022-09-23T12:07:40.766Z,-63
2022-09-23T12:10:09.220Z,-61
2022-09-23T12:12:57.406Z,-60
2022-09-23T12:15:40.248Z,-61
2022-09-23T12:18:19.569Z,-62
2022-09-23T12:21:03.048Z,-62
2022-09-23T12:23:59.188Z,-59
2022-09-23T12:26:27.605Z,-61
2022-09-23T12:29:00.731Z,-59
2022-09-23T12:31:33.031Z,-63
2022-09-23T12:34:05.503Z,-62
2022-09-23T12:36:35.309Z,-62
2022-09-23T12:39:17.369Z,-64
2022-09-23T12:41:50.609Z,-62
2022-09-23T12:44:23.175Z,-62
2022-09-23T12:47:15.055Z,-61
2022-09-23T12:49:42.728Z,-62
2022-09-23T12:52:16.999Z,-64
2022-09-23T12:54:45.683Z,-61
2022-09-23T12:57:41.670Z,-62
2022-09-23T13:00:13.725Z,-64
2022-09-23T13:02:41.378Z,-64
2022-09-23T13:05:26.121Z,-62
2022-09-23T13:07:59.390Z,-63
2022-09-23T13:10:32.780Z,-62
2022-09-23T13:13:02.389Z,-63
2022-09-23T13:15:33.857Z,-61
2022-09-23T13:18:22.788Z,-62
2022-09-23T13:20:54.091Z,-61
2022-09-23T13:23:28.509Z,-61
2022-09-23T13:26:01.468Z,-61
2022-09-23T13:28:39.328Z,-61
2022-09-23T13:31:13.652Z,-62
2022-09-23T13:33:54.800Z,-61
2022-09-23T13:36:21.123Z,-61
2022-09-23T13:38:47.564Z,-61
2022-09-23T13:41:16.160Z,-62
2022-09-23T13:43:49.163Z,-61
2022-09-23T13:46:21.574Z,-61
2022-09-23T13:48:51.773Z,-61
2022-09-23T13:51:36.514Z,-62
2022-09-23T13:54:04.602Z,-61
2022-09-23T13:56:33.187Z,-62
2022-09-23T13:59:23.784Z,-61
2022-09-23T14:01:50.439Z,-63
2022-09-23T14:04:26.220Z,-63
2022-09-23T14:06:54.321Z,-63
2022-09-23T14:09:24.861Z,-63
2022-09-23T14:11:52.517Z,-62
2022-09-23T14:14:20.345Z,-63
2022-09-23T14:16:49.917Z,-61
2022-09-23T14:19:26.460Z,-61
2022-09-23T14:21:54.540Z,-61
2022-09-23T14:24:20.894Z,-61
2022-09-23T14:26:53.130Z,-61
2022-09-23T14:29:24.745Z,-61
2022-09-23T14:32:03.744Z,-61
2022-09-23T14:34:39.454Z,-61
2022-09-23T14:37:36.745Z,-61
2022-09-23T14:40:13.210Z,-60
2022-09-23T14:42:43.024Z,-61
2022-09-23T14:45:15.347Z,-61
2022-09-23T14:47:48.502Z,-61
2022-09-23T14:50:36.778Z,-60
2022-09-23T14:53:04.355Z,-61
2022-09-23T14:55:31.423Z,-61
2022-09-23T14:58:04.612Z,-61
2022-09-23T15:00:31.474Z,-61
2022-09-23T15:03:01.340Z,-61
2022-09-23T15:05:40.934Z,-61
2022-09-23T15:08:10.671Z,-61
2022-09-23T15:10:38.130Z,-60
2022-09-23T15:13:08.987Z,-61
2022-09-23T15:15:36.131Z,-61
2022-09-23T15:18:21.322Z,-60
2022-09-23T15:20:52.208Z,-60
2022-09-23T15:23:34.866Z,-61
2022-09-23T15:26:11.670Z,-61
2022-09-23T15:28:37.991Z,-61
2022-09-23T15:31:05.740Z,-61
2022-09-23T15:33:32.593Z,-61
2022-09-23T15:35:58.929Z,-60
2022-09-23T15:38:27.151Z,-60
2022-09-23T15:40:54.144Z,-60
2022-09-23T15:43:23.230Z,-61
2022-09-23T15:45:53.034Z,-63
2022-09-23T15:48:24.132Z,-62
2022-09-23T15:50:51.207Z,-63
2022-09-23T15:53:21.891Z,-63
2022-09-23T15:55:51.200Z,-63
2022-09-23T15:58:18.966Z,-63
2022-09-23T16:00:45.780Z,-63
2022-09-23T16:03:15.588Z,-62
2022-09-23T16:05:46.773Z,-63
2022-09-23T16:08:14.595Z,-63
2022-09-23T16:10:42.325Z,-63
2022-09-23T16:13:13.412Z,-63
2022-09-23T16:15:40.693Z,-63
2022-09-23T16:18:09.227Z,-63
2022-09-23T16:20:47.291Z,-62
2022-09-23T16:23:34.101Z,-63
2022-09-23T16:26:05.034Z,-63
2022-09-23T16:28:31.647Z,-62
2022-09-23T16:30:58.003Z,-62
2022-09-23T16:33:24.363Z,-62
2022-09-23T16:35:51.666Z,-63
2022-09-23T16:38:17.996Z,-63
2022-09-23T16:40:47.138Z,-62
2022-09-23T16:43:13.707Z,-63
2022-09-23T16:45:40.137Z,-62
2022-09-23T16:48:06.541Z,-62
2022-09-23T16:50:34.136Z,-63
2022-09-23T16:53:00.493Z,-62
2022-09-23T16:55:27.259Z,-63
2022-09-23T16:57:54.463Z,-62
2022-09-23T17:00:40.167Z,-63
2022-09-23T17:03:25.260Z,-62
2022-09-23T17:05:51.603Z,-63
2022-09-23T17:08:18.052Z,-62
2022-09-23T17:10:53.610Z,-62
2022-09-23T17:13:19.947Z,-60
2022-09-23T17:15:46.284Z,-60
2022-09-23T17:18:15.489Z,-60
2022-09-23T17:20:44.025Z,-61
2022-09-23T17:23:10.347Z,-61
2022-09-23T17:25:36.734Z,-60
2022-09-23T17:28:03.161Z,-60
2022-09-23T17:30:29.633Z,-60
2022-09-23T17:32:55.959Z,-60
2022-09-23T17:35:22.729Z,-60
2022-09-23T17:37:49.934Z,-60
2022-09-23T17:40:16.487Z,-60
2022-09-23T17:42:42.985Z,-60
2022-09-23T17:45:12.313Z,-60
2022-09-23T17:47:41.635Z,-60
2022-09-23T17:50:08.516Z,-61
2022-09-23T17:52:34.913Z,-60
2022-09-23T17:55:01.263Z,-61
2022-09-23T17:57:27.614Z,-61
2022-09-23T17:59:53.965Z,-60
2022-09-23T18:02:23.424Z,-60
2022-09-23T18:04:50.048Z,-61
2022-09-23T18:07:16.891Z,-62
2022-09-23T18:09:43.226Z,-61
2022-09-23T18:12:09.633Z,-61
2022-09-23T18:14:36.018Z,-60
2022-09-23T18:17:02.374Z,-60
2022-09-23T18:19:28.763Z,-58
2022-09-23T18:21:57.190Z,-60
2022-09-23T18:24:33.124Z,-59
2022-09-23T18:27:00.614Z,-59
2022-09-23T18:29:27.223Z,-59
2022-09-23T18:31:53.748Z,-59
2022-09-23T18:34:20.291Z,-59
2022-09-23T18:36:46.979Z,-60
2022-09-23T18:39:13.483Z,-58
2022-09-23T18:41:40.606Z,-59
2022-09-23T18:44:06.951Z,-60
2022-09-23T18:46:33.276Z,-62
2022-09-23T18:49:20.518Z,-63
2022-09-23T18:51:55.697Z,-63
2022-09-23T18:54:27.763Z,-61
2022-09-23T18:56:55.170Z,-61
2022-09-23T18:59:25.839Z,-62
2022-09-23T19:01:55.323Z,-62
2022-09-23T19:04:24.334Z,-61
2022-09-23T19:06:50.806Z,-62
2022-09-23T19:09:18.195Z,-61
2022-09-23T19:11:44.637Z,-62
2022-09-23T19:14:12.128Z,-63
2022-09-23T19:16:41.282Z,-61
2022-09-23T19:19:08.342Z,-62
2022-09-23T19:21:35.065Z,-62
2022-09-23T19:24:04.254Z,-61
2022-09-23T19:26:34.085Z,-62
2022-09-23T19:29:02.500Z,-61
2022-09-23T19:31:40.199Z,-62
2022-09-23T19:34:11.521Z,-61
2022-09-23T19:36:39.782Z,-61
2022-09-23T19:39:23.421Z,-61
2022-09-23T19:41:51.256Z,-62
2022-09-23T19:44:19.774Z,-61
2022-09-23T19:46:53.392Z,-61
2022-09-23T19:49:24.419Z,-61
2022-09-23T19:51:51.260Z,-62
2022-09-23T19:54:20.477Z,-62
2022-09-23T19:56:48.517Z,-61
2022-09-23T19:59:18.483Z,-62
2022-09-23T20:01:45.648Z,-61
2022-09-23T20:04:12.142Z,-61
2022-09-23T20:06:38.836Z,-62
2022-09-23T20:09:05.693Z,-61
2022-09-23T20:11:32.529Z,-61
2022-09-23T20:14:02.242Z,-60
2022-09-23T20:16:32.145Z,-61
2022-09-23T20:19:00.360Z,-61
2022-09-23T20:21:29.098Z,-61
2022-09-23T20:23:55.913Z,-60
2022-09-23T20:26:40.859Z,-61
2022-09-23T20:29:08.779Z,-61
2022-09-23T20:31:35.275Z,-61
2022-09-23T20:34:05.370Z,-61
2022-09-23T20:36:32.862Z,-61
2022-09-23T20:39:01.259Z,-61
2022-09-23T20:41:29.682Z,-61
2022-09-23T20:44:00.233Z,-61
2022-09-23T20:46:27.418Z,-61
2022-09-23T20:48:54.272Z,-61
2022-09-23T20:51:20.936Z,-61
2022-09-23T20:53:54.159Z,-61
2022-09-23T20:56:21.307Z,-61
2022-09-23T20:58:50.346Z,-61
2022-09-23T21:01:17.566Z,-61
2022-09-23T21:03:46.130Z,-61
2022-09-23T21:06:14.869Z,-61
2022-09-23T21:08:42.246Z,-61
2022-09-23T21:11:14.871Z,-61
2022-09-23T21:13:46.130Z,-61
2022-09-23T21:16:15.239Z,-61
2022-09-23T21:18:42.335Z,-61
2022-09-23T21:21:10.263Z,-61
2022-09-23T21:23:38.438Z,-61
2022-09-23T21:26:10.947Z,-61
2022-09-23T21:28:48.476Z,-61
2022-09-23T21:31:25.898Z,-61
2022-09-23T21:33:55.822Z,-61
2022-09-23T21:36:23.959Z,-61
2022-09-23T21:38:51.388Z,-61
2022-09-23T21:41:18.073Z,-61
2022-09-23T21:43:44.903Z,-61
2022-09-23T21:46:13.957Z,-61
2022-09-23T21:48:41.972Z,-61
2022-09-23T21:51:11.917Z,-61
2022-09-23T21:53:39.521Z,-61
2022-09-23T21:56:10.019Z,-60
2022-09-23T21:58:37.880Z,-61
2022-09-23T22:01:13.454Z,-61
2022-09-23T22:03:40.351Z,-60
2022-09-23T22:06:09.851Z,-61
2022-09-23T22:08:39.461Z,-61
2022-09-23T22:11:34.767Z,-61
2022-09-23T22:14:03.726Z,-61
2022-09-23T22:16:30.674Z,-60
2022-09-23T22:19:00.584Z,-62
2022-09-23T22:21:29.909Z,-61
2022-09-23T22:23:58.485Z,-61
2022-09-23T22:26:24.991Z,-61
2022-09-23T22:29:10.107Z,-61
2022-09-23T22:31:54.995Z,-61
2022-09-23T22:34:48.403Z,-60
2022-09-23T22:37:17.772Z,-60
2022-09-23T22:39:44.797Z,-61
2022-09-23T22:42:12.963Z,-63
2022-09-23T22:44:39.747Z,-61
2022-09-23T22:47:06.821Z,-61
2022-09-23T22:49:33.329Z,-61
2022-09-23T22:51:59.987Z,-61
2022-09-23T22:54:33.608Z,-60
2022-09-23T22:57:03.138Z,-61
2022-09-23T22:59:29.896Z,-61
2022-09-23T23:01:57.197Z,-61
2022-09-23T23:04:23.766Z,-61
2022-09-23T23:06:50.182Z,-61
2022-09-23T23:09:19.492Z,-60
2022-09-23T23:11:47.070Z,-61
2022-09-23T23:14:16.138Z,-61
2022-09-23T23:16:43.675Z,-61
2022-09-23T23:19:13.576Z,-61
2022-09-23T23:21:43.230Z,-61
2022-09-23T23:24:21.004Z,-61
2022-09-23T23:26:47.614Z,-60
2022-09-23T23:29:16.133Z,-61
2022-09-23T23:31:43.158Z,-61
2022-09-23T23:34:15.688Z,-61
2022-09-23T23:36:43.547Z,-61
2022-09-23T23:39:11.081Z,-61
2022-09-23T23:41:39.127Z,-60
2022-09-23T23:44:06.220Z,-60
2022-09-23T23:46:33.964Z,-61
2022-09-23T23:49:00.634Z,-61
2022-09-23T23:51:27.382Z,-61
2022-09-23T23:53:55.235Z,-61
2022-09-23T23:56:23.820Z,-61
2022-09-23T23:58:55.319Z,-61
